sensor_id;sensor_type;location;lat;lon;timestamp;P1;durP1;ratioP1;P2;durP2;ratioP2
38132;SDS011;23948;43.252;26.572;2022-10-23T00:01:55;36.35;;;23.50;;
38132;SDS011;23948;43.252;26.572;2022-10-23T00:04:21;40.25;;;24.75;;
38132;SDS011;23948;43.252;26.572;2022-10-23T00:06:49;39.30;;;22.98;;
38132;SDS011;23948;43.252;26.572;2022-10-23T00:09:15;33.55;;;19.45;;
38132;SDS011;23948;43.252;26.572;2022-10-23T00:11:41;28.48;;;17.45;;
38132;SDS011;23948;43.252;26.572;2022-10-23T00:14:08;24.80;;;16.13;;
38132;SDS011;23948;43.252;26.572;2022-10-23T00:16:34;27.88;;;16.98;;
38132;SDS011;23948;43.252;26.572;2022-10-23T00:18:59;29.05;;;17.33;;
38132;SDS011;23948;43.252;26.572;2022-10-23T00:21:25;24.67;;;15.70;;
38132;SDS011;23948;43.252;26.572;2022-10-23T00:23:50;22.15;;;14.40;;
38132;SDS011;23948;43.252;26.572;2022-10-23T00:26:17;26.60;;;16.02;;
38132;SDS011;23948;43.252;26.572;2022-10-23T00:28:43;28.17;;;17.55;;
38132;SDS011;23948;43.252;26.572;2022-10-23T00:31:09;31.77;;;18.17;;
38132;SDS011;23948;43.252;26.572;2022-10-23T00:33:34;32.13;;;19.15;;
38132;SDS011;23948;43.252;26.572;2022-10-23T00:36:02;31.45;;;18.63;;
38132;SDS011;23948;43.252;26.572;2022-10-23T00:38:27;34.50;;;19.83;;
38132;SDS011;23948;43.252;26.572;2022-10-23T00:40:53;34.50;;;20.10;;
38132;SDS011;23948;43.252;26.572;2022-10-23T00:43:19;35.03;;;20.55;;
38132;SDS011;23948;43.252;26.572;2022-10-23T00:45:45;39.10;;;21.10;;
38132;SDS011;23948;43.252;26.572;2022-10-23T00:48:10;39.92;;;21.00;;
38132;SDS011;23948;43.252;26.572;2022-10-23T00:50:36;39.72;;;20.17;;
38132;SDS011;23948;43.252;26.572;2022-10-23T00:53:02;32.28;;;19.13;;
38132;SDS011;23948;43.252;26.572;2022-10-23T00:55:28;29.80;;;18.88;;
38132;SDS011;23948;43.252;26.572;2022-10-23T00:57:54;32.10;;;17.60;;
38132;SDS011;23948;43.252;26.572;2022-10-23T01:00:21;25.50;;;16.77;;
38132;SDS011;23948;43.252;26.572;2022-10-23T01:02:47;28.25;;;16.67;;
38132;SDS011;23948;43.252;26.572;2022-10-23T01:05:13;27.70;;;16.23;;
38132;SDS011;23948;43.252;26.572;2022-10-23T01:07:46;26.10;;;16.70;;
38132;SDS011;23948;43.252;26.572;2022-10-23T01:28:10;18.42;;;12.27;;
38132;SDS011;23948;43.252;26.572;2022-10-23T01:30:39;21.85;;;12.68;;
38132;SDS011;23948;43.252;26.572;2022-10-23T01:33:11;19.05;;;11.48;;
38132;SDS011;23948;43.252;26.572;2022-10-23T01:35:44;20.23;;;12.50;;
38132;SDS011;23948;43.252;26.572;2022-10-23T01:38:12;17.98;;;11.82;;
38132;SDS011;23948;43.252;26.572;2022-10-23T01:43:09;19.80;;;12.07;;
38132;SDS011;23948;43.252;26.572;2022-10-23T01:45:38;18.40;;;11.33;;
38132;SDS011;23948;43.252;26.572;2022-10-23T01:48:05;19.40;;;10.77;;
38132;SDS011;23948;43.252;26.572;2022-10-23T01:50:32;18.98;;;11.38;;
38132;SDS011;23948;43.252;26.572;2022-10-23T01:52:58;15.52;;;10.55;;
38132;SDS011;23948;43.252;26.572;2022-10-23T01:55:24;15.75;;;10.52;;
38132;SDS011;23948;43.252;26.572;2022-10-23T01:57:50;16.27;;;10.60;;
38132;SDS011;23948;43.252;26.572;2022-10-23T02:00:16;18.05;;;11.25;;
38132;SDS011;23948;43.252;26.572;2022-10-23T02:02:42;20.65;;;11.45;;
38132;SDS011;23948;43.252;26.572;2022-10-23T02:05:16;22.77;;;11.75;;
38132;SDS011;23948;43.252;26.572;2022-10-23T02:07:43;21.13;;;11.57;;
38132;SDS011;23948;43.252;26.572;2022-10-23T02:10:09;24.65;;;11.82;;
38132;SDS011;23948;43.252;26.572;2022-10-23T02:15:06;20.25;;;10.50;;
38132;SDS011;23948;43.252;26.572;2022-10-23T02:20:24;16.55;;;10.00;;
38132;SDS011;23948;43.252;26.572;2022-10-23T02:22:53;18.20;;;10.70;;
38132;SDS011;23948;43.252;26.572;2022-10-23T02:25:20;17.02;;;10.68;;
38132;SDS011;23948;43.252;26.572;2022-10-23T02:27:49;18.02;;;10.88;;
38132;SDS011;23948;43.252;26.572;2022-10-23T02:30:17;17.55;;;10.38;;
38132;SDS011;23948;43.252;26.572;2022-10-23T02:32:46;16.92;;;10.43;;
38132;SDS011;23948;43.252;26.572;2022-10-23T02:35:12;17.50;;;10.70;;
38132;SDS011;23948;43.252;26.572;2022-10-23T02:37:37;20.60;;;10.98;;
38132;SDS011;23948;43.252;26.572;2022-10-23T02:40:03;18.02;;;9.93;;
38132;SDS011;23948;43.252;26.572;2022-10-23T02:52:23;18.38;;;10.35;;
38132;SDS011;23948;43.252;26.572;2022-10-23T02:57:29;18.77;;;11.02;;
38132;SDS011;23948;43.252;26.572;2022-10-23T03:02:40;17.23;;;10.13;;
38132;SDS011;23948;43.252;26.572;2022-10-23T03:05:08;19.35;;;10.63;;
38132;SDS011;23948;43.252;26.572;2022-10-23T03:07:33;17.83;;;10.85;;
38132;SDS011;23948;43.252;26.572;2022-10-23T03:09:59;17.42;;;10.90;;
38132;SDS011;23948;43.252;26.572;2022-10-23T03:12:25;19.77;;;10.70;;
38132;SDS011;23948;43.252;26.572;2022-10-23T03:14:50;18.98;;;10.43;;
38132;SDS011;23948;43.252;26.572;2022-10-23T03:17:15;20.13;;;10.50;;
38132;SDS011;23948;43.252;26.572;2022-10-23T03:19:40;20.35;;;10.13;;
38132;SDS011;23948;43.252;26.572;2022-10-23T03:22:06;25.48;;;10.30;;
38132;SDS011;23948;43.252;26.572;2022-10-23T03:24:31;15.15;;;9.90;;
38132;SDS011;23948;43.252;26.572;2022-10-23T03:26:56;18.58;;;10.35;;
38132;SDS011;23948;43.252;26.572;2022-10-23T03:29:22;17.20;;;9.60;;
38132;SDS011;23948;43.252;26.572;2022-10-23T03:31:47;21.88;;;9.85;;
38132;SDS011;23948;43.252;26.572;2022-10-23T03:34:12;16.02;;;9.70;;
38132;SDS011;23948;43.252;26.572;2022-10-23T03:36:39;15.25;;;8.98;;
38132;SDS011;23948;43.252;26.572;2022-10-23T03:39:04;15.13;;;8.73;;
38132;SDS011;23948;43.252;26.572;2022-10-23T03:41:30;17.33;;;8.75;;
38132;SDS011;23948;43.252;26.572;2022-10-23T03:43:55;16.27;;;8.65;;
38132;SDS011;23948;43.252;26.572;2022-10-23T03:46:20;17.38;;;8.45;;
38132;SDS011;23948;43.252;26.572;2022-10-23T03:48:46;16.73;;;7.82;;
38132;SDS011;23948;43.252;26.572;2022-10-23T03:51:11;17.60;;;7.72;;
38132;SDS011;23948;43.252;26.572;2022-10-23T03:53:36;13.82;;;7.30;;
38132;SDS011;23948;43.252;26.572;2022-10-23T03:56:02;15.00;;;7.80;;
38132;SDS011;23948;43.252;26.572;2022-10-23T03:58:27;13.70;;;7.07;;
38132;SDS011;23948;43.252;26.572;2022-10-23T04:00:53;18.75;;;7.38;;
38132;SDS011;23948;43.252;26.572;2022-10-23T04:03:18;17.38;;;7.00;;
38132;SDS011;23948;43.252;26.572;2022-10-23T04:05:43;19.02;;;6.80;;
38132;SDS011;23948;43.252;26.572;2022-10-23T04:08:09;16.55;;;6.47;;
38132;SDS011;23948;43.252;26.572;2022-10-23T04:10:34;20.38;;;6.22;;
38132;SDS011;23948;43.252;26.572;2022-10-23T04:12:59;26.23;;;6.45;;
38132;SDS011;23948;43.252;26.572;2022-10-23T04:15:25;14.73;;;5.70;;
38132;SDS011;23948;43.252;26.572;2022-10-23T04:17:50;15.18;;;6.03;;
38132;SDS011;23948;43.252;26.572;2022-10-23T04:20:15;12.75;;;6.28;;
38132;SDS011;23948;43.252;26.572;2022-10-23T04:22:40;15.98;;;6.43;;
38132;SDS011;23948;43.252;26.572;2022-10-23T04:25:06;17.42;;;6.78;;
38132;SDS011;23948;43.252;26.572;2022-10-23T04:27:31;12.88;;;6.20;;
38132;SDS011;23948;43.252;26.572;2022-10-23T04:29:58;18.00;;;6.20;;
38132;SDS011;23948;43.252;26.572;2022-10-23T04:32:23;17.83;;;6.57;;
38132;SDS011;23948;43.252;26.572;2022-10-23T04:34:49;21.75;;;6.70;;
38132;SDS011;23948;43.252;26.572;2022-10-23T04:37:14;16.13;;;6.05;;
38132;SDS011;23948;43.252;26.572;2022-10-23T04:39:39;17.88;;;6.50;;
38132;SDS011;23948;43.252;26.572;2022-10-23T04:42:04;15.23;;;6.68;;
38132;SDS011;23948;43.252;26.572;2022-10-23T04:44:30;13.05;;;6.40;;
38132;SDS011;23948;43.252;26.572;2022-10-23T04:46:55;11.98;;;5.90;;
38132;SDS011;23948;43.252;26.572;2022-10-23T04:49:20;15.02;;;6.00;;
38132;SDS011;23948;43.252;26.572;2022-10-23T04:51:45;17.25;;;6.75;;
38132;SDS011;23948;43.252;26.572;2022-10-23T04:54:11;15.65;;;6.60;;
38132;SDS011;23948;43.252;26.572;2022-10-23T04:56:36;17.98;;;7.10;;
38132;SDS011;23948;43.252;26.572;2022-10-23T04:59:02;16.70;;;6.93;;
38132;SDS011;23948;43.252;26.572;2022-10-23T05:01:27;16.48;;;7.18;;
38132;SDS011;23948;43.252;26.572;2022-10-23T05:03:52;12.88;;;6.63;;
38132;SDS011;23948;43.252;26.572;2022-10-23T05:06:18;15.10;;;7.20;;
38132;SDS011;23948;43.252;26.572;2022-10-23T05:08:43;20.42;;;6.43;;
38132;SDS011;23948;43.252;26.572;2022-10-23T05:11:09;15.43;;;6.80;;
38132;SDS011;23948;43.252;26.572;2022-10-23T05:13:34;12.43;;;6.30;;
38132;SDS011;23948;43.252;26.572;2022-10-23T05:15:59;15.52;;;6.97;;
38132;SDS011;23948;43.252;26.572;2022-10-23T05:18:44;14.02;;;6.80;;
38132;SDS011;23948;43.252;26.572;2022-10-23T05:21:15;16.98;;;6.63;;
38132;SDS011;23948;43.252;26.572;2022-10-23T05:23:43;16.35;;;6.93;;
38132;SDS011;23948;43.252;26.572;2022-10-23T05:26:10;15.18;;;6.80;;
38132;SDS011;23948;43.252;26.572;2022-10-23T05:28:35;16.50;;;7.63;;
38132;SDS011;23948;43.252;26.572;2022-10-23T05:31:01;13.90;;;7.10;;
38132;SDS011;23948;43.252;26.572;2022-10-23T05:33:27;13.80;;;7.45;;
38132;SDS011;23948;43.252;26.572;2022-10-23T05:35:53;18.30;;;7.95;;
38132;SDS011;23948;43.252;26.572;2022-10-23T05:38:19;13.77;;;7.25;;
38132;SDS011;23948;43.252;26.572;2022-10-23T05:40:44;19.48;;;7.82;;
38132;SDS011;23948;43.252;26.572;2022-10-23T05:43:09;18.95;;;8.00;;
38132;SDS011;23948;43.252;26.572;2022-10-23T05:45:35;18.30;;;8.63;;
38132;SDS011;23948;43.252;26.572;2022-10-23T05:48:00;17.67;;;7.57;;
38132;SDS011;23948;43.252;26.572;2022-10-23T05:50:25;18.67;;;8.10;;
38132;SDS011;23948;43.252;26.572;2022-10-23T05:52:50;24.92;;;7.70;;
38132;SDS011;23948;43.252;26.572;2022-10-23T05:55:16;29.25;;;7.95;;
38132;SDS011;23948;43.252;26.572;2022-10-23T05:57:41;25.25;;;8.05;;
38132;SDS011;23948;43.252;26.572;2022-10-23T06:00:07;24.58;;;7.90;;
38132;SDS011;23948;43.252;26.572;2022-10-23T06:02:33;25.08;;;8.43;;
38132;SDS011;23948;43.252;26.572;2022-10-23T06:04:58;26.42;;;7.40;;
38132;SDS011;23948;43.252;26.572;2022-10-23T06:07:24;28.13;;;8.27;;
38132;SDS011;23948;43.252;26.572;2022-10-23T06:09:49;20.67;;;7.13;;
38132;SDS011;23948;43.252;26.572;2022-10-23T06:12:15;19.23;;;6.32;;
38132;SDS011;23948;43.252;26.572;2022-10-23T06:14:40;21.33;;;6.70;;
38132;SDS011;23948;43.252;26.572;2022-10-23T06:17:06;32.47;;;8.30;;
38132;SDS011;23948;43.252;26.572;2022-10-23T06:19:31;34.15;;;7.47;;
38132;SDS011;23948;43.252;26.572;2022-10-23T06:21:56;25.02;;;7.57;;
38132;SDS011;23948;43.252;26.572;2022-10-23T06:24:22;25.42;;;7.07;;
38132;SDS011;23948;43.252;26.572;2022-10-23T06:26:47;22.13;;;6.40;;
38132;SDS011;23948;43.252;26.572;2022-10-23T06:29:12;29.83;;;7.70;;
38132;SDS011;23948;43.252;26.572;2022-10-23T06:31:37;27.33;;;7.30;;
38132;SDS011;23948;43.252;26.572;2022-10-23T06:34:03;30.15;;;6.93;;
38132;SDS011;23948;43.252;26.572;2022-10-23T06:36:28;24.65;;;7.10;;
38132;SDS011;23948;43.252;26.572;2022-10-23T06:38:53;19.83;;;6.35;;
38132;SDS011;23948;43.252;26.572;2022-10-23T06:41:20;17.13;;;7.85;;
38132;SDS011;23948;43.252;26.572;2022-10-23T06:43:46;14.45;;;7.03;;
38132;SDS011;23948;43.252;26.572;2022-10-23T06:46:11;18.75;;;6.82;;
38132;SDS011;23948;43.252;26.572;2022-10-23T06:48:37;15.68;;;6.82;;
38132;SDS011;23948;43.252;26.572;2022-10-23T06:51:06;24.40;;;7.25;;
38132;SDS011;23948;43.252;26.572;2022-10-23T06:53:31;16.55;;;6.72;;
38132;SDS011;23948;43.252;26.572;2022-10-23T06:55:57;15.88;;;6.43;;
38132;SDS011;23948;43.252;26.572;2022-10-23T06:58:23;16.88;;;6.30;;
38132;SDS011;23948;43.252;26.572;2022-10-23T07:00:49;13.15;;;6.40;;
38132;SDS011;23948;43.252;26.572;2022-10-23T07:03:15;19.45;;;6.90;;
38132;SDS011;23948;43.252;26.572;2022-10-23T07:05:40;14.40;;;6.70;;
38132;SDS011;23948;43.252;26.572;2022-10-23T07:08:08;13.35;;;5.93;;
38132;SDS011;23948;43.252;26.572;2022-10-23T07:10:34;17.67;;;6.78;;
38132;SDS011;23948;43.252;26.572;2022-10-23T07:12:59;18.30;;;6.75;;
38132;SDS011;23948;43.252;26.572;2022-10-23T07:15:28;34.50;;;7.47;;
38132;SDS011;23948;43.252;26.572;2022-10-23T07:17:53;28.13;;;6.50;;
38132;SDS011;23948;43.252;26.572;2022-10-23T07:20:19;20.05;;;7.07;;
38132;SDS011;23948;43.252;26.572;2022-10-23T07:22:51;42.15;;;7.35;;
38132;SDS011;23948;43.252;26.572;2022-10-23T07:25:18;23.55;;;7.20;;
38132;SDS011;23948;43.252;26.572;2022-10-23T07:27:43;24.27;;;7.22;;
38132;SDS011;23948;43.252;26.572;2022-10-23T07:30:09;24.27;;;6.40;;
38132;SDS011;23948;43.252;26.572;2022-10-23T07:32:34;24.60;;;6.57;;
38132;SDS011;23948;43.252;26.572;2022-10-23T07:35:00;25.05;;;6.93;;
38132;SDS011;23948;43.252;26.572;2022-10-23T07:37:27;23.40;;;6.45;;
38132;SDS011;23948;43.252;26.572;2022-10-23T07:39:52;28.27;;;5.85;;
38132;SDS011;23948;43.252;26.572;2022-10-23T07:42:17;12.82;;;5.22;;
38132;SDS011;23948;43.252;26.572;2022-10-23T08:35:27;13.80;;;4.47;;
38132;SDS011;23948;43.252;26.572;2022-10-23T08:37:52;14.05;;;4.68;;
38132;SDS011;23948;43.252;26.572;2022-10-23T08:40:18;12.48;;;4.07;;
38132;SDS011;23948;43.252;26.572;2022-10-23T08:42:47;7.10;;;3.55;;
38132;SDS011;23948;43.252;26.572;2022-10-23T08:47:54;15.65;;;3.60;;
38132;SDS011;23948;43.252;26.572;2022-10-23T08:50:29;11.93;;;4.60;;
38132;SDS011;23948;43.252;26.572;2022-10-23T08:55:37;18.67;;;4.10;;
38132;SDS011;23948;43.252;26.572;2022-10-23T08:58:09;13.52;;;3.90;;
38132;SDS011;23948;43.252;26.572;2022-10-23T09:00:39;11.68;;;3.40;;
38132;SDS011;23948;43.252;26.572;2022-10-23T09:03:05;10.45;;;3.58;;
38132;SDS011;23948;43.252;26.572;2022-10-23T09:05:32;11.15;;;3.90;;
38132;SDS011;23948;43.252;26.572;2022-10-23T09:08:03;7.35;;;2.90;;
38132;SDS011;23948;43.252;26.572;2022-10-23T09:13:03;9.65;;;3.35;;
38132;SDS011;23948;43.252;26.572;2022-10-23T09:15:34;9.07;;;3.17;;
38132;SDS011;23948;43.252;26.572;2022-10-23T09:18:10;10.20;;;3.08;;
38132;SDS011;23948;43.252;26.572;2022-10-23T09:20:36;14.27;;;3.53;;
38132;SDS011;23948;43.252;26.572;2022-10-23T09:25:36;7.00;;;3.13;;
38132;SDS011;23948;43.252;26.572;2022-10-23T09:28:02;11.43;;;3.60;;
38132;SDS011;23948;43.252;26.572;2022-10-23T09:30:29;10.50;;;3.13;;
38132;SDS011;23948;43.252;26.572;2022-10-23T09:32:56;6.30;;;3.00;;
38132;SDS011;23948;43.252;26.572;2022-10-23T09:35:22;6.50;;;2.70;;
38132;SDS011;23948;43.252;26.572;2022-10-23T09:37:47;12.10;;;2.78;;
38132;SDS011;23948;43.252;26.572;2022-10-23T09:45:20;6.75;;;2.63;;
38132;SDS011;23948;43.252;26.572;2022-10-23T09:47:45;6.82;;;2.72;;
38132;SDS011;23948;43.252;26.572;2022-10-23T09:50:18;5.78;;;2.55;;
38132;SDS011;23948;43.252;26.572;2022-10-23T09:52:55;11.80;;;2.70;;
38132;SDS011;23948;43.252;26.572;2022-10-23T09:55:21;11.35;;;2.53;;
38132;SDS011;23948;43.252;26.572;2022-10-23T09:57:49;10.90;;;3.03;;
38132;SDS011;23948;43.252;26.572;2022-10-23T10:00:20;7.38;;;2.47;;
38132;SDS011;23948;43.252;26.572;2022-10-23T10:02:59;9.18;;;2.30;;
38132;SDS011;23948;43.252;26.572;2022-10-23T10:10:40;8.27;;;2.55;;
38132;SDS011;23948;43.252;26.572;2022-10-23T10:13:14;8.98;;;2.70;;
38132;SDS011;23948;43.252;26.572;2022-10-23T10:15:48;7.22;;;2.30;;
38132;SDS011;23948;43.252;26.572;2022-10-23T10:18:26;5.00;;;2.22;;
38132;SDS011;23948;43.252;26.572;2022-10-23T10:33:08;8.13;;;2.05;;
38132;SDS011;23948;43.252;26.572;2022-10-23T10:35:39;7.82;;;2.33;;
38132;SDS011;23948;43.252;26.572;2022-10-23T10:45:55;11.35;;;2.50;;
38132;SDS011;23948;43.252;26.572;2022-10-23T10:51:05;6.80;;;2.45;;
38132;SDS011;23948;43.252;26.572;2022-10-23T10:56:15;5.32;;;2.20;;
38132;SDS011;23948;43.252;26.572;2022-10-23T10:58:50;12.00;;;2.80;;
38132;SDS011;23948;43.252;26.572;2022-10-23T11:01:35;5.65;;;2.38;;
38132;SDS011;23948;43.252;26.572;2022-10-23T11:06:36;9.68;;;2.80;;
38132;SDS011;23948;43.252;26.572;2022-10-23T11:09:10;8.98;;;2.65;;
38132;SDS011;23948;43.252;26.572;2022-10-23T11:11:38;5.25;;;2.35;;
38132;SDS011;23948;43.252;26.572;2022-10-23T11:14:14;6.47;;;2.83;;
38132;SDS011;23948;43.252;26.572;2022-10-23T11:16:41;7.82;;;2.60;;
38132;SDS011;23948;43.252;26.572;2022-10-23T11:19:26;8.50;;;3.03;;
38132;SDS011;23948;43.252;26.572;2022-10-23T11:32:20;9.18;;;2.70;;
38132;SDS011;23948;43.252;26.572;2022-10-23T11:37:17;8.38;;;2.72;;
38132;SDS011;23948;43.252;26.572;2022-10-23T11:39:52;9.63;;;2.22;;
38132;SDS011;23948;43.252;26.572;2022-10-23T11:42:32;8.35;;;2.25;;
38132;SDS011;23948;43.252;26.572;2022-10-23T11:44:57;10.07;;;2.45;;
38132;SDS011;23948;43.252;26.572;2022-10-23T11:47:36;9.55;;;3.15;;
38132;SDS011;23948;43.252;26.572;2022-10-23T11:50:24;6.43;;;2.50;;
38132;SDS011;23948;43.252;26.572;2022-10-23T11:52:53;5.45;;;2.25;;
38132;SDS011;23948;43.252;26.572;2022-10-23T11:55:26;7.65;;;2.38;;
38132;SDS011;23948;43.252;26.572;2022-10-23T12:00:39;8.43;;;1.98;;
38132;SDS011;23948;43.252;26.572;2022-10-23T12:03:17;8.35;;;2.08;;
38132;SDS011;23948;43.252;26.572;2022-10-23T12:05:44;8.32;;;2.53;;
38132;SDS011;23948;43.252;26.572;2022-10-23T12:08:18;7.25;;;2.53;;
38132;SDS011;23948;43.252;26.572;2022-10-23T12:10:45;7.60;;;2.10;;
38132;SDS011;23948;43.252;26.572;2022-10-23T12:15:55;9.35;;;2.20;;
38132;SDS011;23948;43.252;26.572;2022-10-23T12:18:20;4.78;;;2.05;;
38132;SDS011;23948;43.252;26.572;2022-10-23T12:23:19;4.82;;;2.20;;
38132;SDS011;23948;43.252;26.572;2022-10-23T12:38:44;5.72;;;2.50;;
38132;SDS011;23948;43.252;26.572;2022-10-23T12:41:18;6.80;;;2.35;;
38132;SDS011;23948;43.252;26.572;2022-10-23T12:43:55;5.00;;;2.10;;
38132;SDS011;23948;43.252;26.572;2022-10-23T12:48:56;6.82;;;1.85;;
38132;SDS011;23948;43.252;26.572;2022-10-23T12:51:23;6.43;;;2.22;;
38132;SDS011;23948;43.252;26.572;2022-10-23T12:53:48;9.93;;;2.53;;
38132;SDS011;23948;43.252;26.572;2022-10-23T12:56:14;5.63;;;1.92;;
38132;SDS011;23948;43.252;26.572;2022-10-23T12:58:43;7.97;;;1.95;;
38132;SDS011;23948;43.252;26.572;2022-10-23T13:01:20;9.60;;;1.90;;
38132;SDS011;23948;43.252;26.572;2022-10-23T13:03:46;6.28;;;1.95;;
38132;SDS011;23948;43.252;26.572;2022-10-23T13:06:12;5.95;;;2.15;;
38132;SDS011;23948;43.252;26.572;2022-10-23T13:08:42;5.45;;;2.33;;
38132;SDS011;23948;43.252;26.572;2022-10-23T14:04:00;4.05;;;1.75;;
38132;SDS011;23948;43.252;26.572;2022-10-23T14:06:28;4.55;;;2.10;;
38132;SDS011;23948;43.252;26.572;2022-10-23T14:08:54;4.18;;;2.03;;
38132;SDS011;23948;43.252;26.572;2022-10-23T14:11:19;3.50;;;2.00;;
38132;SDS011;23948;43.252;26.572;2022-10-23T14:13:46;4.25;;;1.98;;
38132;SDS011;23948;43.252;26.572;2022-10-23T14:16:13;9.82;;;2.17;;
38132;SDS011;23948;43.252;26.572;2022-10-23T14:18:40;8.60;;;2.35;;
38132;SDS011;23948;43.252;26.572;2022-10-23T14:21:06;5.72;;;2.13;;
38132;SDS011;23948;43.252;26.572;2022-10-23T14:23:33;9.82;;;3.15;;
38132;SDS011;23948;43.252;26.572;2022-10-23T14:26:06;8.75;;;2.92;;
38132;SDS011;23948;43.252;26.572;2022-10-23T14:28:33;18.83;;;3.55;;
38132;SDS011;23948;43.252;26.572;2022-10-23T14:31:09;8.68;;;2.53;;
38132;SDS011;23948;43.252;26.572;2022-10-23T14:33:36;10.75;;;3.65;;
38132;SDS011;23948;43.252;26.572;2022-10-23T14:36:02;8.20;;;4.28;;
38132;SDS011;23948;43.252;26.572;2022-10-23T14:38:28;9.02;;;2.60;;
38132;SDS011;23948;43.252;26.572;2022-10-23T14:40:53;9.52;;;2.53;;
38132;SDS011;23948;43.252;26.572;2022-10-23T14:43:19;4.45;;;2.05;;
38132;SDS011;23948;43.252;26.572;2022-10-23T14:45:45;6.63;;;2.35;;
38132;SDS011;23948;43.252;26.572;2022-10-23T14:48:11;8.85;;;2.78;;
38132;SDS011;23948;43.252;26.572;2022-10-23T14:50:41;8.38;;;3.25;;
38132;SDS011;23948;43.252;26.572;2022-10-23T14:53:08;6.75;;;2.70;;
38132;SDS011;23948;43.252;26.572;2022-10-23T14:55:33;5.10;;;2.42;;
38132;SDS011;23948;43.252;26.572;2022-10-23T14:57:59;4.90;;;2.58;;
38132;SDS011;23948;43.252;26.572;2022-10-23T15:00:24;6.53;;;3.40;;
38132;SDS011;23948;43.252;26.572;2022-10-23T15:02:50;5.20;;;3.10;;
38132;SDS011;23948;43.252;26.572;2022-10-23T15:05:15;6.85;;;3.10;;
38132;SDS011;23948;43.252;26.572;2022-10-23T15:07:41;8.00;;;3.17;;
38132;SDS011;23948;43.252;26.572;2022-10-23T15:10:06;8.40;;;3.08;;
38132;SDS011;23948;43.252;26.572;2022-10-23T15:12:33;8.35;;;3.03;;
38132;SDS011;23948;43.252;26.572;2022-10-23T15:14:59;5.68;;;3.17;;
38132;SDS011;23948;43.252;26.572;2022-10-23T15:17:25;11.20;;;3.85;;
38132;SDS011;23948;43.252;26.572;2022-10-23T15:19:50;9.00;;;3.13;;
38132;SDS011;23948;43.252;26.572;2022-10-23T15:22:16;9.15;;;3.90;;
38132;SDS011;23948;43.252;26.572;2022-10-23T15:24:43;6.13;;;3.83;;
38132;SDS011;23948;43.252;26.572;2022-10-23T15:27:09;9.95;;;4.88;;
38132;SDS011;23948;43.252;26.572;2022-10-23T15:29:34;11.25;;;4.47;;
38132;SDS011;23948;43.252;26.572;2022-10-23T15:32:00;8.48;;;4.07;;
38132;SDS011;23948;43.252;26.572;2022-10-23T15:34:26;8.68;;;4.50;;
38132;SDS011;23948;43.252;26.572;2022-10-23T15:36:54;12.93;;;6.07;;
38132;SDS011;23948;43.252;26.572;2022-10-23T15:39:22;18.48;;;6.80;;
38132;SDS011;23948;43.252;26.572;2022-10-23T15:41:51;12.47;;;9.03;;
38132;SDS011;23948;43.252;26.572;2022-10-23T15:44:21;12.65;;;6.50;;
38132;SDS011;23948;43.252;26.572;2022-10-23T15:46:48;9.80;;;5.78;;
38132;SDS011;23948;43.252;26.572;2022-10-23T15:49:14;11.10;;;5.10;;
38132;SDS011;23948;43.252;26.572;2022-10-23T15:51:40;27.45;;;17.33;;
38132;SDS011;23948;43.252;26.572;2022-10-23T15:54:07;20.67;;;11.68;;
38132;SDS011;23948;43.252;26.572;2022-10-23T15:56:34;12.00;;;6.75;;
38132;SDS011;23948;43.252;26.572;2022-10-23T15:59:01;104.28;;;72.60;;
38132;SDS011;23948;43.252;26.572;2022-10-23T16:01:27;33.92;;;23.45;;
38132;SDS011;23948;43.252;26.572;2022-10-23T16:03:52;22.65;;;15.02;;
38132;SDS011;23948;43.252;26.572;2022-10-23T16:06:18;20.55;;;12.07;;
38132;SDS011;23948;43.252;26.572;2022-10-23T16:08:46;23.25;;;12.65;;
38132;SDS011;23948;43.252;26.572;2022-10-23T16:11:21;57.13;;;34.05;;
38132;SDS011;23948;43.252;26.572;2022-10-23T16:13:49;76.55;;;48.03;;
38132;SDS011;23948;43.252;26.572;2022-10-23T16:16:15;65.03;;;38.20;;
38132;SDS011;23948;43.252;26.572;2022-10-23T16:18:41;61.67;;;31.75;;
38132;SDS011;23948;43.252;26.572;2022-10-23T16:21:13;42.25;;;24.13;;
38132;SDS011;23948;43.252;26.572;2022-10-23T16:23:43;33.28;;;18.67;;
38132;SDS011;23948;43.252;26.572;2022-10-23T16:26:09;28.55;;;14.90;;
38132;SDS011;23948;43.252;26.572;2022-10-23T16:28:34;23.75;;;13.25;;
38132;SDS011;23948;43.252;26.572;2022-10-23T16:31:01;18.77;;;10.02;;
38132;SDS011;23948;43.252;26.572;2022-10-23T16:33:31;13.98;;;8.15;;
38132;SDS011;23948;43.252;26.572;2022-10-23T16:36:00;14.25;;;8.35;;
38132;SDS011;23948;43.252;26.572;2022-10-23T16:40:52;16.25;;;7.60;;
38132;SDS011;23948;43.252;26.572;2022-10-23T16:43:18;13.60;;;8.27;;
38132;SDS011;23948;43.252;26.572;2022-10-23T16:45:43;14.55;;;7.72;;
38132;SDS011;23948;43.252;26.572;2022-10-23T16:48:09;15.75;;;8.85;;
38132;SDS011;23948;43.252;26.572;2022-10-23T16:50:37;18.65;;;9.40;;
38132;SDS011;23948;43.252;26.572;2022-10-23T16:53:03;17.40;;;9.18;;
38132;SDS011;23948;43.252;26.572;2022-10-23T16:55:29;15.70;;;10.02;;
38132;SDS011;23948;43.252;26.572;2022-10-23T16:57:54;15.43;;;10.00;;
38132;SDS011;23948;43.252;26.572;2022-10-23T17:00:21;18.52;;;10.52;;
38132;SDS011;23948;43.252;26.572;2022-10-23T17:02:48;23.13;;;11.02;;
38132;SDS011;23948;43.252;26.572;2022-10-23T17:05:13;18.30;;;10.45;;
38132;SDS011;23948;43.252;26.572;2022-10-23T17:07:41;15.57;;;9.27;;
38132;SDS011;23948;43.252;26.572;2022-10-23T17:10:07;13.20;;;7.32;;
38132;SDS011;23948;43.252;26.572;2022-10-23T17:12:34;12.80;;;8.10;;
38132;SDS011;23948;43.252;26.572;2022-10-23T17:15:00;15.77;;;8.05;;
38132;SDS011;23948;43.252;26.572;2022-10-23T17:17:25;12.52;;;7.57;;
38132;SDS011;23948;43.252;26.572;2022-10-23T17:19:50;13.52;;;7.53;;
38132;SDS011;23948;43.252;26.572;2022-10-23T17:22:16;10.43;;;6.93;;
38132;SDS011;23948;43.252;26.572;2022-10-23T17:24:41;11.15;;;6.60;;
38132;SDS011;23948;43.252;26.572;2022-10-23T17:27:08;12.40;;;7.53;;
38132;SDS011;23948;43.252;26.572;2022-10-23T17:29:33;11.57;;;5.78;;
38132;SDS011;23948;43.252;26.572;2022-10-23T17:31:59;19.10;;;10.80;;
38132;SDS011;23948;43.252;26.572;2022-10-23T17:34:25;11.90;;;7.00;;
38132;SDS011;23948;43.252;26.572;2022-10-23T17:36:51;12.52;;;7.47;;
38132;SDS011;23948;43.252;26.572;2022-10-23T17:39:19;15.55;;;7.75;;
38132;SDS011;23948;43.252;26.572;2022-10-23T17:41:50;12.40;;;8.50;;
38132;SDS011;23948;43.252;26.572;2022-10-23T17:44:16;13.05;;;7.75;;
38132;SDS011;23948;43.252;26.572;2022-10-23T17:46:41;12.35;;;8.65;;
38132;SDS011;23948;43.252;26.572;2022-10-23T17:49:07;15.73;;;7.78;;
38132;SDS011;23948;43.252;26.572;2022-10-23T17:51:34;10.23;;;7.13;;
38132;SDS011;23948;43.252;26.572;2022-10-23T17:54:02;12.85;;;7.68;;
38132;SDS011;23948;43.252;26.572;2022-10-23T17:56:31;10.20;;;7.28;;
38132;SDS011;23948;43.252;26.572;2022-10-23T17:59:00;12.93;;;8.25;;
38132;SDS011;23948;43.252;26.572;2022-10-23T18:01:27;11.60;;;7.32;;
38132;SDS011;23948;43.252;26.572;2022-10-23T18:03:55;27.92;;;16.10;;
38132;SDS011;23948;43.252;26.572;2022-10-23T18:06:24;33.63;;;20.40;;
38132;SDS011;23948;43.252;26.572;2022-10-23T18:08:53;34.13;;;17.63;;
38132;SDS011;23948;43.252;26.572;2022-10-23T18:11:22;29.60;;;17.73;;
38132;SDS011;23948;43.252;26.572;2022-10-23T18:13:50;24.15;;;14.75;;